Time;durP1;ratioP1;P1;durP2;ratioP2;P2;SDS_P1;SDS_P2;PMS_P1;PMS_P2;Temp;Humidity;BMP_temperature;BMP_pressure;BME280_temperature;BME280_humidity;BME280_pressure;Samples;Min_cycle;Max_cycle;Signal;HPM_P1;HPM_P2
2022/06/16 00:02:13;;;;;;;;;;;;;;;24.91;nan;99908.13;4962159;28;19969;-72
2022/06/16 00:04:39;;;;;;;;;;;;;;;24.67;nan;99901.72;4963970;28;19945;-72
2022/06/16 00:10:12;;;;;;;;;;;;;;;24.61;nan;99908.03;4964873;28;20051;-72
2022/06/16 00:12:37;;;;;;;;;;;;;;;24.54;nan;99901.06;4962166;28;20173;-72
2022/06/16 00:15:03;;;;;;;;;;;;;;;24.34;nan;99906.66;4963159;28;19925;-72
2022/06/16 00:17:29;;;;;;;;;;;;;;;24.26;nan;99898.88;4962284;28;19914;-72
2022/06/16 00:19:54;;;;;;;;;;;;;;;24.21;nan;99898.72;4964330;28;19918;-72
2022/06/16 00:22:20;;;;;;;;;;;;;;;24.07;nan;99901.50;4964560;28;20012;-72
2022/06/16 00:24:45;;;;;;;;;;;;;;;24.01;nan;99891.59;4964369;28;20295;-72
2022/06/16 00:27:10;;;;;;;;;;;;;;;23.99;nan;99904.47;4961984;28;19933;-72
2022/06/16 00:29:36;;;;;;;;;;;;;;;24.05;nan;99908.97;4961802;28;19957;-72
2022/06/16 00:32:01;;;;;;;;;;;;;;;24.13;nan;99904.34;4961841;28;19925;-71
2022/06/16 00:34:27;;;;;;;;;;;;;;;24.09;nan;99898.59;4961716;28;19981;-72
2022/06/16 00:36:53;;;;;;;;;;;;;;;24.03;nan;99894.09;4962831;28;19927;-72
2022/06/16 00:39:18;;;;;;;;;;;;;;;23.94;nan;99890.00;4960110;28;19950;-71
2022/06/16 00:41:44;;;;;;;;;;;;;;;23.83;nan;99883.47;4963854;28;20389;-72
2022/06/16 00:44:14;;;;;;;;;;;;;;;23.80;nan;99883.91;4960366;28;20342;-73
2022/06/16 00:46:39;;;;;;;;;;;;;;;23.76;nan;99882.72;4963337;28;19919;-72
2022/06/16 00:49:06;;;;;;;;;;;;;;;23.83;nan;99883.47;4961167;28;19933;-72
2022/06/16 00:51:52;;;;;;;;;;;;;;;23.86;nan;99874.09;4962132;28;20448;-73
2022/06/16 00:54:21;;;;;;;;;;;;;;;23.91;nan;99879.69;4963475;28;19929;-72
2022/06/16 00:56:47;;;;;;;;;;;;;;;23.95;nan;99870.94;4966652;28;20005;-72
2022/06/16 00:59:12;;;;;;;;;;;;;;;23.91;nan;99861.66;4956416;28;19922;-73
2022/06/16 01:01:39;;;;;;;;;;;;;;;23.92;nan;99855.19;4958923;28;20466;-72
2022/06/16 01:06:49;;;;;;;;;;;;;;;23.97;nan;99841.91;4964095;28;19914;-73
2022/06/16 01:09:23;;;;;;;;;;;;;;;24.02;nan;99836.66;4960707;28;19950;-73
2022/06/16 01:14:56;;;;;;;;;;;;;;;24.11;nan;99830.94;4984555;28;20433;-72
2022/06/16 01:17:22;;;;;;;;;;;;;;;24.02;nan;99828.56;4961181;28;19914;-73
2022/06/16 01:20:10;;;;;;;;;;;;;;;24.01;nan;99826.91;4960678;28;19918;-73
2022/06/16 01:22:39;;;;;;;;;;;;;;;24.02;nan;99823.19;4967741;28;19922;-73
2022/06/16 01:25:12;;;;;;;;;;;;;;;24.05;nan;99828.09;4960766;28;19969;-73
2022/06/16 01:27:58;;;;;;;;;;;;;;;24.11;nan;99817.47;4960943;28;19948;-73
2022/06/16 01:30:29;;;;;;;;;;;;;;;24.15;nan;99816.00;4969699;28;20239;-72
2022/06/16 01:33:00;;;;;;;;;;;;;;;24.11;nan;99810.22;4962350;28;20335;-72
2022/06/16 01:35:34;;;;;;;;;;;;;;;24.06;nan;99812.75;4961088;28;19918;-73
2022/06/16 01:38:00;;;;;;;;;;;;;;;23.98;nan;99815.75;4961050;28;19926;-72
2022/06/16 01:40:30;;;;;;;;;;;;;;;23.71;nan;99819.75;4962625;28;19924;-73
2022/06/16 01:43:05;;;;;;;;;;;;;;;23.55;nan;99813.06;4958935;28;19954;-72
2022/06/16 01:45:37;;;;;;;;;;;;;;;23.37;nan;99803.03;4960108;28;19922;-73
2022/06/16 01:48:05;;;;;;;;;;;;;;;23.23;nan;99798.78;4960317;28;19918;-73
2022/06/16 01:50:34;;;;;;;;;;;;;;;23.19;nan;99789.50;4960455;28;20333;-72
2022/06/16 01:53:06;;;;;;;;;;;;;;;23.28;nan;99785.47;4961100;28;19972;-73
2022/06/16 01:55:33;;;;;;;;;;;;;;;23.37;nan;99769.88;4961493;28;19945;-73
2022/06/16 01:58:12;;;;;;;;;;;;;;;23.47;nan;99754.06;4959168;28;20585;-72
2022/06/16 02:00:38;;;;;;;;;;;;;;;23.55;nan;99751.94;4959290;28;19918;-72
2022/06/16 02:03:06;;;;;;;;;;;;;;;23.64;nan;99765.91;4960456;28;19918;-71
2022/06/16 02:05:41;;;;;;;;;;;;;;;23.71;nan;99753.22;4959851;28;19922;-72
2022/06/16 02:08:15;;;;;;;;;;;;;;;23.72;nan;99765.66;4960156;28;20446;-71
2022/06/16 02:10:52;;;;;;;;;;;;;;;23.65;nan;99767.56;4959303;28;19962;-71
2022/06/16 02:13:24;;;;;;;;;;;;;;;23.53;nan;99791.72;4961248;28;19921;-71
2022/06/16 02:15:55;;;;;;;;;;;;;;;23.42;nan;99800.50;4962968;28;20322;-74
2022/06/16 02:18:24;;;;;;;;;;;;;;;23.24;nan;99781.59;4965775;28;20374;-74
2022/06/16 02:20:56;;;;;;;;;;;;;;;23.22;nan;99776.41;4963271;28;20037;-74
2022/06/16 02:23:22;;;;;;;;;;;;;;;23.23;nan;99775.38;4961532;28;20008;-73
2022/06/16 02:25:50;;;;;;;;;;;;;;;23.12;nan;99777.94;4961418;28;19978;-73
2022/06/16 02:28:16;;;;;;;;;;;;;;;23.01;nan;99775.97;4957695;28;19919;-73
2022/06/16 02:30:58;;;;;;;;;;;;;;;22.88;nan;99793.00;4961697;28;19932;-73
2022/06/16 02:33:34;;;;;;;;;;;;;;;22.76;nan;99800.13;4963057;28;19933;-71
2022/06/16 02:36:10;;;;;;;;;;;;;;;22.75;nan;99809.22;4959110;28;19926;-73
2022/06/16 02:38:44;;;;;;;;;;;;;;;22.75;nan;99820.00;4959016;28;20434;-74
2022/06/16 02:41:12;;;;;;;;;;;;;;;22.62;nan;99820.03;4961500;28;20394;-73
2022/06/16 02:43:48;;;;;;;;;;;;;;;22.57;nan;99809.06;4958997;28;19922;-73
2022/06/16 02:46:31;;;;;;;;;;;;;;;22.59;nan;99801.63;4961773;28;20278;-71
2022/06/16 02:49:05;;;;;;;;;;;;;;;22.59;nan;99780.13;4962964;28;20275;-73
2022/06/16 03:06:57;;;;;;;11.35;10.30;;;;;;;23.10;100.00;99805.06;5092307;27;1459297;-74
2022/06/16 03:09:24;;;;;;;11.57;10.68;;;;;;;23.09;100.00;99803.41;5099557;28;20361;-71
2022/06/16 03:11:49;;;;;;;11.15;10.25;;;;;;;23.07;100.00;99781.31;5101277;28;20035;-73
2022/06/16 03:14:15;;;;;;;13.00;11.68;;;;;;;23.07;100.00;99775.91;5119544;28;20024;-72
2022/06/16 03:16:44;;;;;;;11.98;10.95;;;;;;;23.07;100.00;99783.16;5100998;28;20061;-72
2022/06/16 03:19:10;;;;;;;11.57;10.60;;;;;;;23.06;100.00;99805.72;5099731;28;20031;-73
2022/06/16 03:21:40;;;;;;;11.88;10.82;;;;;;;23.06;100.00;99803.88;5100665;28;20399;-73
2022/06/16 03:24:07;;;;;;;12.10;11.05;;;;;;;23.10;100.00;99802.38;5102051;28;20035;-72
2022/06/16 03:26:33;;;;;;;12.10;11.18;;;;;;;23.12;100.00;99803.00;5098885;28;20038;-73
2022/06/16 03:28:59;;;;;;;14.00;11.10;;;;;;;23.15;100.00;99799.84;5121129;28;20032;-72
2022/06/16 03:31:26;;;;;;;11.38;10.48;;;;;;;23.16;100.00;99801.50;5098625;28;20028;-71
2022/06/16 03:33:55;;;;;;;12.20;11.20;;;;;;;23.16;100.00;99796.13;5120138;28;20042;-71
2022/06/16 03:36:24;;;;;;;16.15;11.10;;;;;;;23.12;100.00;99805.69;5116213;28;20123;-71
2022/06/16 03:38:50;;;;;;;11.32;10.25;;;;;;;23.11;100.00;99801.34;5101107;28;20028;-73
2022/06/16 03:41:17;;;;;;;10.82;9.82;;;;;;;23.13;100.00;99796.56;5098751;28;20038;-71
2022/06/16 03:43:43;;;;;;;11.10;10.10;;;;;;;23.14;100.00;99802.78;5118199;28;20063;-71
2022/06/16 03:46:19;;;;;;;10.95;9.85;;;;;;;23.16;100.00;99806.91;5098830;28;20042;-71
2022/06/16 03:48:54;;;;;;;10.98;9.88;;;;;;;23.11;100.00;99801.34;5101604;28;20383;-72
2022/06/16 03:51:30;;;;;;;12.82;10.18;;;;;;;23.09;100.00;99798.03;5094226;28;20058;-71
2022/06/16 03:53:56;;;;;;;11.85;9.80;;;;;;;23.10;100.00;99802.38;5094307;28;20043;-72
2022/06/16 03:56:23;;;;;;;11.50;10.30;;;;;;;23.10;100.00;99806.94;5100747;28;20035;-72
2022/06/16 03:58:54;;;;;;;11.30;9.63;;;;;;;23.09;100.00;99799.94;5099064;28;20023;-72
2022/06/16 04:01:21;;;;;;;11.38;10.10;;;;;;;23.04;100.00;99803.25;5100540;28;20395;-72
2022/06/16 04:03:59;;;;;;;10.23;9.32;;;;;;;23.01;100.00;99806.38;5082505;28;20450;-72
2022/06/16 04:06:26;;;;;;;10.20;9.27;;;;;;;23.00;100.00;99811.97;5114184;28;20071;-72
2022/06/16 04:08:52;;;;;;;10.60;9.50;;;;;;;22.97;100.00;99802.50;5085185;28;20365;-73
2022/06/16 04:11:26;;;;;;;10.82;9.43;;;;;;;22.95;100.00;99799.19;5084262;28;20031;-71
2022/06/16 04:14:04;;;;;;;9.68;8.70;;;;;;;22.92;100.00;99809.53;5106224;28;20385;-72
2022/06/16 04:16:33;;;;;;;9.90;8.50;;;;;;;22.88;100.00;99811.84;5098458;28;20173;-71
2022/06/16 04:18:59;;;;;;;9.65;8.93;;;;;;;22.82;100.00;99815.41;5081396;28;20435;-72
2022/06/16 04:21:25;;;;;;;10.95;8.80;;;;;;;22.75;100.00;99804.69;5083388;28;20028;-72
2022/06/16 04:24:10;;;;;;;9.52;8.60;;;;;;;22.80;100.00;99806.72;5101056;28;20096;-72
2022/06/16 04:26:37;;;;;;;9.55;8.60;;;;;;;22.80;100.00;99815.59;5085785;28;20412;-72
2022/06/16 04:29:05;;;;;;;9.93;9.02;;;;;;;22.80;100.00;99812.09;5084411;28;20492;-72
2022/06/16 04:31:31;;;;;;;9.13;8.18;;;;;;;22.83;100.00;99812.50;5104946;28;20421;-72
2022/06/16 04:33:58;;;;;;;10.18;8.80;;;;;;;22.81;100.00;99809.19;5079444;28;20032;-72
2022/06/16 04:36:25;;;;;;;9.38;8.50;;;;;;;22.84;100.00;99814.16;5086300;28;20035;-72
2022/06/16 04:39:09;;;;;;;9.35;8.55;;;;;;;22.92;100.00;99804.16;5080984;28;20415;-72
2022/06/16 04:41:36;;;;;;;10.32;7.90;;;;;;;22.98;100.00;99804.13;5083562;28;20425;-73
2022/06/16 04:44:05;;;;;;;10.30;7.72;;;;;;;23.01;100.00;99810.94;5086449;28;20071;-72
2022/06/16 04:46:32;;;;;;;9.43;8.32;;;;;;;23.02;100.00;99805.34;5082966;28;20419;-72
2022/06/16 04:48:57;;;;;;;8.30;7.60;;;;;;;23.08;100.00;99812.56;5105167;28;20360;-72
2022/06/16 04:51:23;;;;;;;8.05;7.35;;;;;;;23.14;100.00;99809.00;5083247;28;20043;-72
2022/06/16 04:53:52;;;;;;;8.73;7.90;;;;;;;23.20;100.00;99813.50;5086273;28;20445;-73
2022/06/16 04:56:33;;;;;;;8.13;7.32;;;;;;;23.26;100.00;99827.97;5082960;28;20035;-72
2022/06/16 04:59:13;;;;;;;8.90;7.47;;;;;;;23.31;100.00;99827.31;5103593;28;20084;-73
2022/06/16 05:01:56;;;;;;;9.18;8.13;;;;;;;23.32;100.00;99831.66;5101320;28;20036;-74
2022/06/16 05:04:49;;;;;;;7.95;7.28;;;;;;;23.35;100.00;99826.66;5102996;28;20425;-72
2022/06/16 05:07:33;;;;;;;7.93;7.22;;;;;;;23.41;100.00;99839.22;5098434;28;20182;-72
2022/06/16 05:10:22;;;;;;;8.88;7.85;;;;;;;23.44;100.00;99832.59;5090325;28;20118;-76
2022/06/16 05:13:02;;;;;;;8.30;7.55;;;;;;;23.45;100.00;99826.16;5083396;28;20024;-74
2022/06/16 05:15:45;;;;;;;9.98;9.02;;;;;;;23.56;100.00;99830.88;5084937;28;20035;-74
2022/06/16 05:18:14;;;;;;;8.00;7.38;;;;;;;23.66;100.00;99828.50;5101829;28;20047;-74
2022/06/16 05:21:04;;;;;;;8.88;8.10;;;;;;;23.72;100.00;99827.63;5097430;28;20113;-73
2022/06/16 05:23:41;;;;;;;9.18;7.63;;;;;;;23.79;100.00;99816.78;5082241;28;20044;-73
2022/06/16 05:26:28;;;;;;;11.52;8.52;;;;;;;23.82;100.00;99811.75;5096127;28;20681;-73
2022/06/16 05:29:05;;;;;;;8.85;8.15;;;;;;;23.87;100.00;99822.69;5098619;28;20039;-73
2022/06/16 05:31:55;;;;;;;9.35;8.45;;;;;;;23.92;100.00;99828.22;5095184;28;20560;-74
2022/06/16 05:34:46;;;;;;;10.25;9.20;;;;;;;24.01;99.96;99843.09;5073424;28;20067;-76
2022/06/16 05:37:26;;;;;;;10.77;8.20;;;;;;;24.07;99.60;99836.81;5082915;28;20396;-73
2022/06/16 05:40:14;;;;;;;9.68;8.73;;;;;;;24.13;99.61;99839.66;5100516;28;20040;-74
2022/06/16 05:43:02;;;;;;;10.77;9.43;;;;;;;24.14;99.66;99841.31;5082128;28;20039;-73
2022/06/16 05:45:54;;;;;;;13.13;10.88;;;;;;;24.23;99.37;99845.38;5069091;28;20063;-73
2022/06/16 05:48:26;;;;;;;10.50;9.60;;;;;;;24.30;99.43;99841.56;5083507;28;20040;-74
2022/06/16 05:51:05;;;;;;;9.18;8.48;;;;;;;24.37;100.00;99854.97;5077664;28;20024;-72
2022/06/16 05:53:36;;;;;;;11.15;10.07;;;;;;;24.43;100.00;99840.59;5079044;28;20072;-74
2022/06/16 05:56:02;;;;;;;11.60;9.90;;;;;;;24.49;100.00;99845.09;5084962;28;20034;-73
2022/06/16 05:58:35;;;;;;;10.00;9.10;;;;;;;24.57;100.00;99858.25;5081636;28;20046;-73
2022/06/16 06:01:02;;;;;;;11.77;10.68;;;;;;;24.66;100.00;99864.19;5085077;28;20554;-73
2022/06/16 06:03:29;;;;;;;11.00;9.40;;;;;;;24.72;100.00;99861.41;5064649;28;20510;-73
2022/06/16 06:05:57;;;;;;;14.60;10.73;;;;;;;24.83;100.00;99865.19;5102111;28;20288;-73
2022/06/16 06:16:45;;;;;;;15.45;14.13;;;;;;;24.88;100.00;99866.19;5099902;28;20043;-72
2022/06/16 06:19:25;;;;;;;17.00;13.88;;;;;;;24.91;100.00;99872.19;5083656;28;20039;-73
2022/06/16 06:22:13;;;;;;;15.18;13.70;;;;;;;24.92;100.00;99874.66;5083943;28;20479;-73
2022/06/16 06:24:47;;;;;;;16.00;14.13;;;;;;;24.95;100.00;99878.78;5080035;28;20035;-73
2022/06/16 06:27:19;;;;;;;16.33;14.65;;;;;;;25.01;100.00;99872.47;5082012;28;20038;-73
2022/06/16 06:29:47;;;;;;;18.05;15.15;;;;;;;25.08;100.00;99881.31;5082661;28;20689;-74
2022/06/16 06:32:15;;;;;;;19.88;15.07;;;;;;;25.18;100.00;99878.88;5082975;28;20024;-74
2022/06/16 06:34:41;;;;;;;19.75;17.70;;;;;;;25.15;100.00;99879.34;5100400;28;20032;-73
2022/06/16 06:37:08;;;;;;;21.77;19.63;;;;;;;24.82;100.00;99872.47;5083669;28;20192;-73
2022/06/16 06:39:34;;;;;;;19.38;17.42;;;;;;;24.98;100.00;99876.44;5099278;28;20107;-74
2022/06/16 06:42:03;;;;;;;18.25;16.60;;;;;;;25.13;100.00;99865.25;5102642;28;20111;-74
2022/06/16 06:44:34;;;;;;;20.08;17.95;;;;;;;25.24;100.00;99867.97;5077506;28;20092;-73
2022/06/16 06:47:00;;;;;;;16.92;15.30;;;;;;;25.37;100.00;99869.66;5102854;28;20122;-73
2022/06/16 06:49:26;;;;;;;21.13;17.15;;;;;;;25.48;100.00;99866.16;5098910;28;20024;-74
2022/06/16 06:51:52;;;;;;;19.60;17.05;;;;;;;25.57;100.00;99859.38;5101986;28;20049;-73
2022/06/16 06:54:18;;;;;;;19.98;16.92;;;;;;;25.69;99.83;99862.91;5099663;28;20027;-73
2022/06/16 06:56:45;;;;;;;19.17;17.30;;;;;;;25.80;99.37;99857.78;5100872;28;20024;-74
2022/06/16 06:59:18;;;;;;;20.27;18.27;;;;;;;25.89;98.29;99856.34;5101587;28;20068;-74
2022/06/16 07:01:50;;;;;;;22.88;20.60;;;;;;;25.74;98.74;99859.53;5082779;28;20028;-73
2022/06/16 07:04:17;;;;;;;24.50;19.92;;;;;;;25.87;98.34;99866.56;5100532;28;20032;-74
2022/06/16 07:06:44;;;;;;;18.00;16.10;;;;;;;25.85;98.48;99872.22;5100609;28;20486;-74
2022/06/16 07:09:11;;;;;;;24.83;20.58;;;;;;;25.94;98.29;99870.00;5101206;28;20027;-73
2022/06/16 07:11:41;;;;;;;21.67;19.50;;;;;;;26.04;98.30;99864.81;5099442;28;20411;-73
2022/06/16 07:14:08;;;;;;;18.00;16.13;;;;;;;26.16;98.32;99862.91;5101517;28;20030;-73
2022/06/16 07:16:34;;;;;;;19.88;18.00;;;;;;;26.27;98.00;99862.13;5098881;28;20475;-73
2022/06/16 07:19:00;;;;;;;22.67;20.60;;;;;;;26.39;97.42;99862.91;5084374;28;20368;-73
2022/06/16 07:21:25;;;;;;;24.88;22.42;;;;;;;26.39;97.34;99865.63;5099169;28;20031;-72
2022/06/16 07:23:52;;;;;;;26.60;22.80;;;;;;;26.40;97.30;99863.75;5083419;28;20040;-72
2022/06/16 07:26:19;;;;;;;25.25;22.25;;;;;;;26.47;97.55;99864.44;5099930;28;20051;-72
2022/06/16 07:28:45;;;;;;;25.98;22.85;;;;;;;26.56;96.66;99862.19;5100633;28;20036;-74
2022/06/16 07:31:11;;;;;;;28.40;24.90;;;;;;;26.60;96.16;99852.53;5101234;28;20181;-73
2022/06/16 07:33:37;;;;;;;24.60;22.42;;;;;;;26.57;96.07;99847.59;5099460;28;20112;-72
2022/06/16 07:36:03;;;;;;;24.88;22.33;;;;;;;26.58;96.18;99839.22;5102230;28;20082;-71
2022/06/16 07:38:29;;;;;;;24.23;21.83;;;;;;;26.58;95.91;99833.00;5098652;28;20032;-72
2022/06/16 07:41:31;;;;;;;24.42;21.83;;;;;;;26.63;95.65;99827.69;5102092;28;20028;-72
2022/06/16 07:43:40;;;;;;;21.67;19.38;;;;;;;26.66;95.34;99816.38;5101439;28;20028;-73
2022/06/16 07:46:06;;;;;;;21.70;19.45;;;;;;;26.75;94.68;99818.44;5104451;28;20083;-72
2022/06/16 07:48:32;;;;;;;20.63;18.60;;;;;;;26.84;93.02;99808.06;5100495;28;20043;-73
2022/06/16 07:50:57;;;;;;;23.23;18.65;;;;;;;26.93;92.09;99812.03;5102775;28;20039;-72
2022/06/16 07:53:23;;;;;;;21.73;19.45;;;;;;;26.96;91.37;99803.47;5105513;28;20023;-71
2022/06/16 07:55:48;;;;;;;19.25;17.45;;;;;;;27.02;91.47;99797.06;5103325;28;20028;-73
2022/06/16 07:58:14;;;;;;;18.58;16.77;;;;;;;27.10;90.67;99799.34;5104837;28;20027;-74
2022/06/16 08:00:40;;;;;;;21.00;18.33;;;;;;;27.17;89.69;99800.03;5102893;28;20028;-74
2022/06/16 08:03:05;;;;;;;21.55;16.98;;;;;;;27.17;90.00;99805.44;5105470;28;20020;-74
2022/06/16 08:05:32;;;;;;;19.58;17.20;;;;;;;27.27;90.00;99800.19;5102047;28;20048;-74
2022/06/16 08:07:58;;;;;;;18.13;16.48;;;;;;;27.30;89.06;99801.59;5098195;28;20565;-75
2022/06/16 08:10:28;;;;;;;21.58;19.38;;;;;;;27.35;88.56;99800.84;5086470;28;20063;-75
2022/06/16 08:12:54;;;;;;;19.20;16.25;;;;;;;27.37;89.09;99796.03;5102199;28;20024;-75
2022/06/16 08:15:20;;;;;;;16.60;15.10;;;;;;;27.45;88.06;99795.63;5104187;28;20491;-72
2022/06/16 08:17:49;;;;;;;24.02;14.82;;;;;;;27.55;87.08;99801.22;5082691;28;20047;-73
2022/06/16 08:20:17;;;;;;;14.43;12.57;;;;;;;27.60;86.44;99804.00;5103319;28;20027;-73
2022/06/16 08:22:42;;;;;;;14.90;13.45;;;;;;;27.66;85.07;99803.84;5103350;28;20153;-73
2022/06/16 08:25:12;;;;;;;16.17;12.20;;;;;;;27.71;84.67;99805.81;5104532;28;20118;-72
2022/06/16 08:27:41;;;;;;;12.02;10.77;;;;;;;27.80;83.77;99798.91;5101607;28;20105;-72
2022/06/16 08:30:11;;;;;;;12.10;10.82;;;;;;;27.91;84.06;99797.97;5104263;28;20112;-74
2022/06/16 08:32:37;;;;;;;17.40;12.18;;;;;;;28.01;83.05;99795.41;5102303;28;20552;-73
2022/06/16 08:35:04;;;;;;;17.55;13.77;;;;;;;28.00;82.50;99788.34;5105048;28;20059;-74
2022/06/16 08:37:30;;;;;;;15.40;11.43;;;;;;;28.06;82.75;99792.75;5101228;28;20056;-73
2022/06/16 08:39:56;;;;;;;12.23;10.93;;;;;;;28.11;81.98;99790.09;5105158;28;20170;-74
2022/06/16 08:42:30;;;;;;;14.05;10.52;;;;;;;28.13;80.72;99781.75;5100954;28;20055;-74
2022/06/16 08:45:05;;;;;;;13.90;12.00;;;;;;;28.19;81.39;99785.34;5085930;28;20028;-75
2022/06/16 08:47:42;;;;;;;15.70;12.10;;;;;;;28.10;80.13;99772.19;5097549;28;20391;-74
2022/06/16 08:50:29;;;;;;;10.27;9.15;;;;;;;28.10;74.82;99766.75;5099894;28;20396;-74
2022/06/16 08:53:07;;;;;;;8.80;8.07;;;;;;;28.11;72.54;99771.13;5101328;28;20032;-74
2022/06/16 08:55:38;;;;;;;8.73;7.93;;;;;;;28.19;75.87;99763.63;5097758;28;20066;-74
2022/06/16 08:58:12;;;;;;;8.63;7.80;;;;;;;28.28;72.92;99768.38;5085942;28;20043;-73
2022/06/16 09:00:42;;;;;;;8.80;6.72;;;;;;;28.33;73.23;99759.47;5083398;28;20032;-73
2022/06/16 09:03:38;;;;;;;8.73;6.95;;;;;;;28.43;73.61;99759.59;5100274;28;20454;-71
2022/06/16 09:06:33;;;;;;;8.80;7.50;;;;;;;28.54;73.36;99764.06;5097734;28;20036;-73
2022/06/16 09:09:08;;;;;;;8.70;7.60;;;;;;;28.63;73.81;99759.81;5097378;28;20075;-72
2022/06/16 09:12:03;;;;;;;10.57;7.28;;;;;;;28.68;71.33;99754.44;5095732;28;20032;-74
2022/06/16 09:17:48;;;;;;;10.85;8.07;;;;;;;28.63;71.08;99751.66;5094224;28;20103;-72
2022/06/16 09:20:21;;;;;;;12.25;8.95;;;;;;;28.68;72.22;99749.03;5099962;28;20092;-72
2022/06/16 09:23:35;;;;;;;8.15;7.45;;;;;;;28.74;72.26;99756.16;5096112;28;20085;-72
2022/06/16 09:26:28;;;;;;;11.95;7.90;;;;;;;28.78;71.55;99741.00;5071736;28;20040;-73
2022/06/16 09:29:09;;;;;;;8.95;7.50;;;;;;;28.86;72.06;99753.28;5096772;28;20039;-72
2022/06/16 09:31:59;;;;;;;8.35;7.40;;;;;;;28.95;70.68;99759.06;5099510;28;20032;-72
2022/06/16 09:34:27;;;;;;;;;;;;;;;28.95;69.30;99748.19;5097472;28;20505;-71
2022/06/16 09:37:00;;;;;;;7.45;6.65;;;;;;;28.97;67.99;99749.59;5097819;28;20284;-71
2022/06/16 09:39:39;;;;;;;8.90;7.10;;;;;;;29.08;68.03;99751.31;5100902;28;20102;-70
2022/06/16 09:42:45;;;;;;;8.50;7.60;;;;;;;29.13;68.38;99750.53;5099485;28;20039;-71
2022/06/16 09:45:06;;;;;;;7.95;7.15;;;;;;;29.13;65.72;99753.25;5095371;28;20427;-72
2022/06/16 09:47:47;;;;;;;7.90;6.65;;;;;;;29.05;66.32;99745.56;5100170;28;20622;-73
2022/06/16 09:50:18;;;;;;;;;;;;;;;29.04;64.66;99739.31;5084636;28;20031;-74
2022/06/16 09:53:06;;;;;;;6.53;6.03;;;;;;;29.07;66.81;99748.84;5101545;28;19988;-75
2022/06/16 09:55:58;;;;;;;10.48;7.15;;;;;;;29.15;67.16;99756.53;5096210;28;20028;-75
2022/06/16 09:58:38;;;;;;;7.30;6.53;;;;;;;29.24;64.85;99754.97;5088671;28;20043;-74
2022/06/16 10:01:08;;;;;;;6.97;6.30;;;;;;;29.30;64.57;99753.94;5096655;28;20484;-74
2022/06/16 10:03:52;;;;;;;7.70;7.00;;;;;;;29.38;63.64;99756.22;5099755;28;20876;-72
2022/06/16 10:06:24;;;;;;;7.10;5.97;;;;;;;29.45;63.34;99745.94;5100522;28;20039;-73
2022/06/16 10:08:59;;;;;;;6.70;6.07;;;;;;;29.45;62.71;99740.50;5102074;28;20446;-72
2022/06/16 10:11:43;;;;;;;7.68;5.57;;;;;;;29.47;62.17;99743.75;5099802;28;20028;-75
2022/06/16 10:14:34;;;;;;;6.63;5.82;;;;;;;29.52;62.14;99741.06;5097605;28;20111;-74
2022/06/16 10:17:06;;;;;;;6.75;6.07;;;;;;;29.60;62.42;99742.47;5077405;28;20039;-74
2022/06/16 10:19:38;;;;;;;9.25;6.00;;;;;;;29.69;61.86;99741.72;5098919;28;20383;-74
2022/06/16 10:22:06;;;;;;;6.47;5.85;;;;;;;29.76;61.69;99746.09;5097114;28;20463;-73
2022/06/16 10:24:52;;;;;;;7.60;6.70;;;;;;;29.76;61.10;99744.22;5102382;28;20136;-73
2022/06/16 10:27:19;;;;;;;6.38;5.72;;;;;;;29.80;61.13;99741.78;5100179;28;20047;-73
2022/06/16 10:30:06;;;;;;;7.05;6.05;;;;;;;29.86;62.02;99743.47;5101103;28;20035;-75
2022/06/16 10:32:46;;;;;;;12.63;6.18;;;;;;;29.87;62.75;99748.63;5095861;28;20028;-74
2022/06/16 10:35:20;;;;;;;7.60;6.87;;;;;;;29.92;62.02;99751.41;5101485;28;20032;-75
2022/06/16 10:37:53;;;;;;;7.18;5.90;;;;;;;29.97;62.27;99751.44;5101969;28;20084;-78
2022/06/16 10:40:26;;;;;;;7.20;6.43;;;;;;;29.95;62.89;99753.59;5104041;28;20040;-75
2022/06/16 10:42:58;;;;;;;9.65;6.10;;;;;;;29.92;62.94;99751.41;5100428;28;20040;-75
2022/06/16 10:45:31;;;;;;;7.30;6.28;;;;;;;29.85;63.56;99749.97;5084219;28;20446;-74
2022/06/16 10:47:57;;;;;;;6.78;6.18;;;;;;;29.91;61.60;99746.25;5082017;28;20044;-75
2022/06/16 10:50:33;;;;;;;11.40;5.65;;;;;;;29.99;61.13;99741.09;5100066;28;20084;-76
2022/06/16 10:53:48;;;;;;;12.70;6.60;;;;;;;30.06;60.31;99746.28;5097953;28;20438;-78
2022/06/16 10:56:22;;;;;;;12.63;7.68;;;;;;;30.21;59.72;99738.22;5102078;28;20065;-77
2022/06/16 10:58:59;;;;;;;8.50;5.75;;;;;;;30.26;58.39;99735.50;5085761;28;20051;-78
2022/06/16 11:01:33;;;;;;;7.65;6.22;;;;;;;30.26;58.08;99732.78;5105538;28;20391;-77
2022/06/16 11:04:11;;;;;;;8.70;5.45;;;;;;;30.27;58.39;99737.13;5098279;28;20031;-77
2022/06/16 11:06:47;;;;;;;8.55;5.53;;;;;;;30.33;58.19;99741.53;5099914;28;20051;-78
2022/06/16 11:09:18;;;;;;;8.23;5.53;;;;;;;30.42;57.65;99739.06;5100654;28;20376;-76
2022/06/16 11:11:54;;;;;;;11.77;5.38;;;;;;;30.49;56.61;99735.06;5087301;28;20035;-77
2022/06/16 11:14:31;;;;;;;6.32;5.70;;;;;;;30.54;55.59;99736.97;5103665;28;20083;-77
2022/06/16 11:16:57;;;;;;;5.97;5.50;;;;;;;30.59;54.40;99727.97;5105324;28;20426;-77
2022/06/16 11:19:36;;;;;;;11.73;5.78;;;;;;;30.63;54.22;99729.09;5109033;28;20028;-77
2022/06/16 11:22:16;;;;;;;6.10;5.22;;;;;;;30.63;55.59;99729.09;5109470;28;20110;-77
2022/06/16 11:25:12;;;;;;;5.93;5.32;;;;;;;30.69;55.36;99722.56;5105103;28;20493;-76
2022/06/16 11:27:47;;;;;;;7.10;5.53;;;;;;;30.74;55.40;99728.03;5102133;28;20193;-76
2022/06/16 11:30:34;;;;;;;6.00;5.43;;;;;;;30.81;54.58;99720.38;5107491;28;20082;-74
2022/06/16 11:33:01;;;;;;;6.38;5.20;;;;;;;30.93;54.53;99718.22;5100538;28;20463;-75
2022/06/16 11:36:16;;;;;;;6.30;5.72;;;;;;;31.00;54.57;99710.59;5106643;28;20661;-74
2022/06/16 11:39:06;;;;;;;6.05;5.43;;;;;;;31.10;52.58;99713.38;5100398;28;20036;-74
2022/06/16 11:41:34;;;;;;;7.40;5.43;;;;;;;31.09;51.54;99706.28;5096868;28;20438;-74
2022/06/16 11:44:05;;;;;;;11.00;5.70;;;;;;;31.16;51.74;99693.16;5096750;28;20554;-74
2022/06/16 11:46:49;;;;;;;6.13;5.55;;;;;;;31.24;52.85;99692.63;5094809;28;20045;-74
2022/06/16 11:49:41;;;;;;;9.05;6.30;;;;;;;31.35;53.92;99695.31;5010302;28;20108;-74
2022/06/16 11:52:36;;;;;;;6.10;5.50;;;;;;;31.48;54.04;99681.13;5011824;28;20050;-72
2022/06/16 11:55:20;;;;;;;6.60;5.20;;;;;;;31.49;53.56;99682.75;5007865;28;20137;-71
2022/06/16 11:58:02;;;;;;;6.20;5.22;;;;;;;31.50;53.67;99678.94;5014105;28;20390;-71
2022/06/16 12:00:50;;;;;;;5.97;5.47;;;;;;;31.56;52.97;99677.84;5013019;28;20152;-71
2022/06/16 12:03:46;;;;;;;7.95;5.95;;;;;;;31.63;52.72;99672.94;4993716;28;20037;-71
2022/06/16 12:06:21;;;;;;;5.30;4.90;;;;;;;31.70;51.57;99676.16;5001427;28;20661;-72
2022/06/16 12:09:05;;;;;;;7.22;5.25;;;;;;;31.83;50.43;99677.50;5000109;28;20487;-72
2022/06/16 12:12:22;;;;;;;6.10;4.90;;;;;;;31.91;50.29;99664.09;4995883;28;20411;-71
2022/06/16 12:15:23;;;;;;;5.90;4.68;;;;;;;32.18;49.26;99662.88;4996041;28;20070;-70
2022/06/16 12:18:04;;;;;;;5.20;4.20;;;;;;;32.38;49.17;99662.78;4997963;28;20038;-71
2022/06/16 12:20:34;;;;;;;5.90;5.10;;;;;;;32.57;48.59;99655.53;4998095;28;20054;-72
2022/06/16 12:23:09;;;;;;;8.00;5.20;;;;;;;32.76;46.28;99653.75;4994812;28;20371;-70
2022/06/16 12:25:58;;;;;;;8.43;4.90;;;;;;;32.93;47.88;99654.16;4996351;28;20041;-72
2022/06/16 12:28:59;;;;;;;10.87;4.30;;;;;;;33.16;46.84;99649.03;5041292;28;20040;-72
2022/06/16 12:31:43;;;;;;;5.00;4.57;;;;;;;33.41;44.59;99643.31;5059148;28;20052;-72
2022/06/16 12:34:33;;;;;;;8.40;4.80;;;;;;;33.75;42.63;99645.16;5059868;28;20032;-71
2022/06/16 12:37:04;;;;;;;8.98;4.50;;;;;;;34.00;41.35;99642.06;5057589;28;20452;-71
2022/06/16 12:39:42;;;;;;;6.53;4.60;;;;;;;34.20;39.74;99632.78;5057409;28;21636;-69
2022/06/16 12:42:13;;;;;;;4.35;4.05;;;;;;;34.43;40.54;99632.72;5060825;28;20435;-71
2022/06/16 12:44:54;;;;;;;12.07;6.00;;;;;;;34.67;38.82;99626.31;5057152;28;20404;-71
2022/06/16 12:47:28;;;;;;;5.13;4.30;;;;;;;35.00;37.40;99629.88;5059718;28;20119;-70
2022/06/16 12:50:22;;;;;;;4.85;4.18;;;;;;;35.30;37.58;99624.66;5061614;28;20630;-71
2022/06/16 12:52:57;;;;;;;7.32;3.92;;;;;;;35.75;36.85;99610.38;5060255;28;20032;-71